sensor_id;sensor_type;location;lat;lon;timestamp;P1;durP1;ratioP1;P2;durP2;ratioP2
15637;SDS011;26604;53.596;10.042;2024-03-08T00:00:04;18.30;;;10.55;;
15637;SDS011;26604;53.596;10.042;2024-03-08T00:02:36;25.90;;;12.05;;
15637;SDS011;26604;53.596;10.042;2024-03-08T00:05:03;21.35;;;10.13;;
15637;SDS011;26604;53.596;10.042;2024-03-08T00:07:32;21.48;;;11.43;;
15637;SDS011;26604;53.596;10.042;2024-03-08T00:09:58;28.58;;;11.70;;
15637;SDS011;26604;53.596;10.042;2024-03-08T00:12:25;29.50;;;15.95;;
15637;SDS011;26604;53.596;10.042;2024-03-08T00:14:52;28.58;;;14.93;;
15637;SDS011;26604;53.596;10.042;2024-03-08T00:17:19;21.10;;;10.90;;
15637;SDS011;26604;53.596;10.042;2024-03-08T00:19:47;22.05;;;10.90;;
15637;SDS011;26604;53.596;10.042;2024-03-08T00:22:17;20.33;;;11.13;;
15637;SDS011;26604;53.596;10.042;2024-03-08T00:24:45;22.90;;;10.02;;
15637;SDS011;26604;53.596;10.042;2024-03-08T00:27:14;26.63;;;10.40;;
15637;SDS011;26604;53.596;10.042;2024-03-08T00:29:41;21.20;;;10.18;;
15637;SDS011;26604;53.596;10.042;2024-03-08T00:32:08;24.05;;;11.57;;
15637;SDS011;26604;53.596;10.042;2024-03-08T00:34:36;24.55;;;11.20;;
15637;SDS011;26604;53.596;10.042;2024-03-08T00:37:02;18.73;;;10.35;;
15637;SDS011;26604;53.596;10.042;2024-03-08T00:39:30;24.23;;;11.75;;
15637;SDS011;26604;53.596;10.042;2024-03-08T00:41:58;23.85;;;10.95;;
15637;SDS011;26604;53.596;10.042;2024-03-08T00:44:24;21.58;;;11.52;;
15637;SDS011;26604;53.596;10.042;2024-03-08T00:46:51;25.25;;;11.10;;
15637;SDS011;26604;53.596;10.042;2024-03-08T00:49:18;25.33;;;11.35;;
15637;SDS011;26604;53.596;10.042;2024-03-08T00:51:45;25.42;;;11.93;;
15637;SDS011;26604;53.596;10.042;2024-03-08T00:54:11;26.27;;;11.68;;
15637;SDS011;26604;53.596;10.042;2024-03-08T00:56:38;25.50;;;10.52;;
15637;SDS011;26604;53.596;10.042;2024-03-08T00:59:07;24.13;;;11.57;;
15637;SDS011;26604;53.596;10.042;2024-03-08T01:01:34;24.02;;;10.38;;
15637;SDS011;26604;53.596;10.042;2024-03-08T01:04:01;22.88;;;10.85;;
15637;SDS011;26604;53.596;10.042;2024-03-08T01:06:28;28.75;;;10.88;;
15637;SDS011;26604;53.596;10.042;2024-03-08T01:08:55;20.17;;;10.65;;
15637;SDS011;26604;53.596;10.042;2024-03-08T01:11:22;23.33;;;11.32;;
15637;SDS011;26604;53.596;10.042;2024-03-08T01:13:49;21.77;;;10.90;;
15637;SDS011;26604;53.596;10.042;2024-03-08T01:16:17;25.23;;;11.75;;
15637;SDS011;26604;53.596;10.042;2024-03-08T01:18:45;23.08;;;10.93;;
15637;SDS011;26604;53.596;10.042;2024-03-08T01:21:12;22.05;;;10.68;;
15637;SDS011;26604;53.596;10.042;2024-03-08T01:23:39;23.30;;;11.15;;
15637;SDS011;26604;53.596;10.042;2024-03-08T01:26:05;23.02;;;11.00;;
15637;SDS011;26604;53.596;10.042;2024-03-08T01:28:32;23.52;;;10.52;;
15637;SDS011;26604;53.596;10.042;2024-03-08T01:30:59;22.50;;;11.55;;
15637;SDS011;26604;53.596;10.042;2024-03-08T01:33:30;23.58;;;11.45;;
15637;SDS011;26604;53.596;10.042;2024-03-08T01:35:57;21.83;;;11.27;;
15637;SDS011;26604;53.596;10.042;2024-03-08T01:38:24;22.80;;;11.77;;
15637;SDS011;26604;53.596;10.042;2024-03-08T01:40:50;25.98;;;11.82;;
15637;SDS011;26604;53.596;10.042;2024-03-08T01:43:18;22.98;;;10.95;;
15637;SDS011;26604;53.596;10.042;2024-03-08T01:45:45;22.85;;;11.20;;
15637;SDS011;26604;53.596;10.042;2024-03-08T01:48:12;23.40;;;10.80;;
15637;SDS011;26604;53.596;10.042;2024-03-08T01:50:42;24.00;;;12.25;;
15637;SDS011;26604;53.596;10.042;2024-03-08T01:53:09;22.70;;;11.63;;
15637;SDS011;26604;53.596;10.042;2024-03-08T01:55:36;23.73;;;11.68;;
15637;SDS011;26604;53.596;10.042;2024-03-08T01:58:05;25.70;;;12.30;;
15637;SDS011;26604;53.596;10.042;2024-03-08T02:00:32;22.38;;;11.45;;
15637;SDS011;26604;53.596;10.042;2024-03-08T02:03:00;27.20;;;12.88;;
15637;SDS011;26604;53.596;10.042;2024-03-08T02:05:29;23.25;;;11.25;;
15637;SDS011;26604;53.596;10.042;2024-03-08T02:07:57;27.80;;;12.38;;
15637;SDS011;26604;53.596;10.042;2024-03-08T02:10:24;23.15;;;12.23;;
15637;SDS011;26604;53.596;10.042;2024-03-08T02:12:51;29.90;;;12.05;;
15637;SDS011;26604;53.596;10.042;2024-03-08T02:15:18;24.30;;;12.35;;
15637;SDS011;26604;53.596;10.042;2024-03-08T02:17:44;24.75;;;11.90;;
15637;SDS011;26604;53.596;10.042;2024-03-08T02:20:12;27.25;;;12.68;;
15637;SDS011;26604;53.596;10.042;2024-03-08T02:22:40;22.85;;;10.95;;
15637;SDS011;26604;53.596;10.042;2024-03-08T02:25:08;23.88;;;11.68;;
15637;SDS011;26604;53.596;10.042;2024-03-08T02:27:35;25.52;;;11.93;;
15637;SDS011;26604;53.596;10.042;2024-03-08T02:30:02;27.13;;;12.95;;
15637;SDS011;26604;53.596;10.042;2024-03-08T02:32:30;29.20;;;11.95;;
15637;SDS011;26604;53.596;10.042;2024-03-08T02:34:57;24.30;;;12.15;;
15637;SDS011;26604;53.596;10.042;2024-03-08T02:37:25;27.63;;;12.02;;
15637;SDS011;26604;53.596;10.042;2024-03-08T02:39:54;27.02;;;12.68;;
15637;SDS011;26604;53.596;10.042;2024-03-08T02:42:21;25.85;;;12.60;;
15637;SDS011;26604;53.596;10.042;2024-03-08T02:44:48;24.85;;;12.23;;
15637;SDS011;26604;53.596;10.042;2024-03-08T02:47:15;26.67;;;12.70;;
15637;SDS011;26604;53.596;10.042;2024-03-08T02:49:41;22.90;;;12.40;;
15637;SDS011;26604;53.596;10.042;2024-03-08T02:52:08;29.90;;;12.80;;
15637;SDS011;26604;53.596;10.042;2024-03-08T02:54:36;28.05;;;12.43;;
15637;SDS011;26604;53.596;10.042;2024-03-08T02:57:04;23.95;;;12.25;;
15637;SDS011;26604;53.596;10.042;2024-03-08T02:59:32;20.45;;;11.48;;
15637;SDS011;26604;53.596;10.042;2024-03-08T03:01:59;26.05;;;12.60;;
15637;SDS011;26604;53.596;10.042;2024-03-08T03:04:26;26.30;;;12.45;;
15637;SDS011;26604;53.596;10.042;2024-03-08T03:06:53;32.90;;;13.27;;
15637;SDS011;26604;53.596;10.042;2024-03-08T03:09:20;28.25;;;13.40;;
15637;SDS011;26604;53.596;10.042;2024-03-08T03:11:52;28.88;;;12.80;;
15637;SDS011;26604;53.596;10.042;2024-03-08T03:14:20;28.90;;;12.65;;
15637;SDS011;26604;53.596;10.042;2024-03-08T03:16:47;26.48;;;12.88;;
15637;SDS011;26604;53.596;10.042;2024-03-08T03:19:15;27.23;;;12.30;;
15637;SDS011;26604;53.596;10.042;2024-03-08T03:21:41;24.55;;;12.27;;
15637;SDS011;26604;53.596;10.042;2024-03-08T03:24:09;23.92;;;11.82;;
15637;SDS011;26604;53.596;10.042;2024-03-08T03:26:36;28.70;;;12.80;;
15637;SDS011;26604;53.596;10.042;2024-03-08T03:29:04;26.67;;;12.65;;
15637;SDS011;26604;53.596;10.042;2024-03-08T03:31:34;28.65;;;12.40;;
15637;SDS011;26604;53.596;10.042;2024-03-08T03:34:02;23.13;;;12.27;;
15637;SDS011;26604;53.596;10.042;2024-03-08T03:36:29;26.63;;;12.48;;
15637;SDS011;26604;53.596;10.042;2024-03-08T03:38:56;33.42;;;12.85;;
15637;SDS011;26604;53.596;10.042;2024-03-08T03:41:32;30.73;;;13.88;;
15637;SDS011;26604;53.596;10.042;2024-03-08T03:43:59;23.17;;;12.00;;
15637;SDS011;26604;53.596;10.042;2024-03-08T03:46:26;29.33;;;12.85;;
15637;SDS011;26604;53.596;10.042;2024-03-08T03:48:54;27.60;;;12.38;;
15637;SDS011;26604;53.596;10.042;2024-03-08T03:51:21;23.63;;;12.57;;
15637;SDS011;26604;53.596;10.042;2024-03-08T03:53:48;31.40;;;12.98;;
15637;SDS011;26604;53.596;10.042;2024-03-08T03:56:15;31.60;;;13.82;;
15637;SDS011;26604;53.596;10.042;2024-03-08T03:58:41;28.73;;;12.90;;
15637;SDS011;26604;53.596;10.042;2024-03-08T04:01:08;26.92;;;12.88;;
15637;SDS011;26604;53.596;10.042;2024-03-08T04:03:35;27.88;;;12.52;;
15637;SDS011;26604;53.596;10.042;2024-03-08T04:06:04;29.90;;;13.32;;
15637;SDS011;26604;53.596;10.042;2024-03-08T04:08:31;27.25;;;12.50;;
15637;SDS011;26604;53.596;10.042;2024-03-08T04:10:59;25.38;;;12.25;;
15637;SDS011;26604;53.596;10.042;2024-03-08T04:13:26;29.33;;;12.98;;
15637;SDS011;26604;53.596;10.042;2024-03-08T04:15:53;27.52;;;13.15;;
15637;SDS011;26604;53.596;10.042;2024-03-08T04:18:20;31.02;;;12.65;;
15637;SDS011;26604;53.596;10.042;2024-03-08T04:20:46;33.47;;;12.63;;
15637;SDS011;26604;53.596;10.042;2024-03-08T04:23:15;27.48;;;12.55;;
15637;SDS011;26604;53.596;10.042;2024-03-08T04:25:42;29.65;;;12.93;;
15637;SDS011;26604;53.596;10.042;2024-03-08T04:28:09;26.80;;;13.18;;
15637;SDS011;26604;53.596;10.042;2024-03-08T04:30:37;28.55;;;12.88;;
15637;SDS011;26604;53.596;10.042;2024-03-08T04:33:04;32.20;;;13.80;;
15637;SDS011;26604;53.596;10.042;2024-03-08T04:35:31;30.67;;;13.50;;
15637;SDS011;26604;53.596;10.042;2024-03-08T04:37:58;26.98;;;12.45;;
15637;SDS011;26604;53.596;10.042;2024-03-08T04:40:26;31.35;;;12.38;;
15637;SDS011;26604;53.596;10.042;2024-03-08T04:42:53;34.15;;;14.48;;
15637;SDS011;26604;53.596;10.042;2024-03-08T04:45:20;23.77;;;11.10;;
15637;SDS011;26604;53.596;10.042;2024-03-08T04:47:47;30.38;;;11.85;;
15637;SDS011;26604;53.596;10.042;2024-03-08T04:50:14;32.85;;;13.88;;
15637;SDS011;26604;53.596;10.042;2024-03-08T04:52:41;26.83;;;12.15;;
15637;SDS011;26604;53.596;10.042;2024-03-08T04:55:08;27.08;;;13.18;;
15637;SDS011;26604;53.596;10.042;2024-03-08T04:57:36;26.17;;;13.30;;
15637;SDS011;26604;53.596;10.042;2024-03-08T05:00:03;25.23;;;12.52;;
15637;SDS011;26604;53.596;10.042;2024-03-08T05:02:36;31.67;;;13.45;;
15637;SDS011;26604;53.596;10.042;2024-03-08T05:05:04;28.30;;;13.30;;
15637;SDS011;26604;53.596;10.042;2024-03-08T05:07:32;27.95;;;12.60;;
15637;SDS011;26604;53.596;10.042;2024-03-08T05:10:00;28.40;;;12.80;;
15637;SDS011;26604;53.596;10.042;2024-03-08T05:12:27;22.58;;;11.45;;
15637;SDS011;26604;53.596;10.042;2024-03-08T05:14:55;34.15;;;12.65;;
15637;SDS011;26604;53.596;10.042;2024-03-08T05:17:22;29.55;;;13.85;;
15637;SDS011;26604;53.596;10.042;2024-03-08T05:19:49;32.03;;;14.30;;
15637;SDS011;26604;53.596;10.042;2024-03-08T05:22:16;27.75;;;12.82;;
15637;SDS011;26604;53.596;10.042;2024-03-08T05:24:43;28.30;;;13.15;;
15637;SDS011;26604;53.596;10.042;2024-03-08T05:27:10;29.60;;;12.80;;
15637;SDS011;26604;53.596;10.042;2024-03-08T05:29:38;28.20;;;13.93;;
15637;SDS011;26604;53.596;10.042;2024-03-08T05:32:06;28.20;;;13.32;;
15637;SDS011;26604;53.596;10.042;2024-03-08T05:34:34;33.90;;;13.63;;
15637;SDS011;26604;53.596;10.042;2024-03-08T05:37:01;25.02;;;12.85;;
15637;SDS011;26604;53.596;10.042;2024-03-08T05:39:28;34.75;;;13.73;;
15637;SDS011;26604;53.596;10.042;2024-03-08T05:41:55;28.27;;;12.70;;
15637;SDS011;26604;53.596;10.042;2024-03-08T05:44:22;29.35;;;12.80;;
15637;SDS011;26604;53.596;10.042;2024-03-08T05:46:48;29.60;;;13.85;;
15637;SDS011;26604;53.596;10.042;2024-03-08T05:49:17;27.90;;;13.48;;
15637;SDS011;26604;53.596;10.042;2024-03-08T05:51:43;33.92;;;13.35;;
15637;SDS011;26604;53.596;10.042;2024-03-08T05:54:12;29.08;;;13.80;;
15637;SDS011;26604;53.596;10.042;2024-03-08T05:56:39;27.50;;;12.57;;
15637;SDS011;26604;53.596;10.042;2024-03-08T05:59:07;30.77;;;13.65;;
15637;SDS011;26604;53.596;10.042;2024-03-08T06:01:34;29.23;;;13.95;;
15637;SDS011;26604;53.596;10.042;2024-03-08T06:04:01;29.52;;;13.25;;
15637;SDS011;26604;53.596;10.042;2024-03-08T06:06:30;30.20;;;13.43;;
15637;SDS011;26604;53.596;10.042;2024-03-08T06:08:57;24.45;;;12.63;;
15637;SDS011;26604;53.596;10.042;2024-03-08T06:11:24;27.83;;;13.45;;
15637;SDS011;26604;53.596;10.042;2024-03-08T06:13:53;32.08;;;14.38;;
15637;SDS011;26604;53.596;10.042;2024-03-08T06:16:24;34.00;;;14.40;;
15637;SDS011;26604;53.596;10.042;2024-03-08T06:18:54;32.05;;;14.27;;
15637;SDS011;26604;53.596;10.042;2024-03-08T06:21:22;29.52;;;12.77;;
15637;SDS011;26604;53.596;10.042;2024-03-08T06:23:52;29.45;;;13.30;;
15637;SDS011;26604;53.596;10.042;2024-03-08T06:26:19;30.42;;;12.63;;
15637;SDS011;26604;53.596;10.042;2024-03-08T06:28:47;30.85;;;14.52;;
15637;SDS011;26604;53.596;10.042;2024-03-08T06:31:13;27.48;;;13.23;;
15637;SDS011;26604;53.596;10.042;2024-03-08T06:33:40;24.20;;;12.48;;
15637;SDS011;26604;53.596;10.042;2024-03-08T06:36:08;27.95;;;13.77;;
15637;SDS011;26604;53.596;10.042;2024-03-08T06:38:36;30.42;;;14.23;;
15637;SDS011;26604;53.596;10.042;2024-03-08T06:41:08;28.05;;;13.80;;
15637;SDS011;26604;53.596;10.042;2024-03-08T06:43:40;28.30;;;13.68;;
15637;SDS011;26604;53.596;10.042;2024-03-08T06:46:07;29.33;;;13.82;;
15637;SDS011;26604;53.596;10.042;2024-03-08T06:48:34;26.65;;;13.85;;
15637;SDS011;26604;53.596;10.042;2024-03-08T06:51:03;31.50;;;14.05;;
15637;SDS011;26604;53.596;10.042;2024-03-08T06:53:30;34.72;;;15.18;;
15637;SDS011;26604;53.596;10.042;2024-03-08T06:55:57;31.58;;;14.65;;
15637;SDS011;26604;53.596;10.042;2024-03-08T06:58:25;35.58;;;15.05;;
15637;SDS011;26604;53.596;10.042;2024-03-08T07:00:52;27.33;;;14.10;;
15637;SDS011;26604;53.596;10.042;2024-03-08T07:03:23;36.92;;;15.00;;
15637;SDS011;26604;53.596;10.042;2024-03-08T07:05:51;32.15;;;14.45;;
15637;SDS011;26604;53.596;10.042;2024-03-08T07:08:18;31.67;;;15.80;;
15637;SDS011;26604;53.596;10.042;2024-03-08T07:10:47;30.55;;;14.73;;
15637;SDS011;26604;53.596;10.042;2024-03-08T07:13:14;30.45;;;14.82;;
15637;SDS011;26604;53.596;10.042;2024-03-08T07:15:43;33.42;;;15.27;;
15637;SDS011;26604;53.596;10.042;2024-03-08T07:18:10;36.97;;;15.27;;
15637;SDS011;26604;53.596;10.042;2024-03-08T07:20:39;40.85;;;16.33;;
15637;SDS011;26604;53.596;10.042;2024-03-08T07:23:07;36.47;;;15.88;;
15637;SDS011;26604;53.596;10.042;2024-03-08T07:25:35;35.63;;;15.95;;
15637;SDS011;26604;53.596;10.042;2024-03-08T07:28:04;26.92;;;13.00;;
15637;SDS011;26604;53.596;10.042;2024-03-08T07:30:32;29.42;;;14.90;;
15637;SDS011;26604;53.596;10.042;2024-03-08T07:36:12;33.78;;;14.20;;
15637;SDS011;26604;53.596;10.042;2024-03-08T07:38:39;32.03;;;15.25;;
15637;SDS011;26604;53.596;10.042;2024-03-08T07:41:06;28.45;;;13.73;;
15637;SDS011;26604;53.596;10.042;2024-03-08T07:43:33;36.22;;;15.05;;
15637;SDS011;26604;53.596;10.042;2024-03-08T07:46:00;26.77;;;13.32;;
15637;SDS011;26604;53.596;10.042;2024-03-08T07:48:28;33.20;;;15.07;;
15637;SDS011;26604;53.596;10.042;2024-03-08T07:50:56;28.35;;;13.68;;
15637;SDS011;26604;53.596;10.042;2024-03-08T07:53:23;31.42;;;13.63;;
15637;SDS011;26604;53.596;10.042;2024-03-08T07:55:50;30.70;;;13.88;;
15637;SDS011;26604;53.596;10.042;2024-03-08T07:58:17;27.25;;;14.30;;
15637;SDS011;26604;53.596;10.042;2024-03-08T08:00:44;28.65;;;14.07;;
15637;SDS011;26604;53.596;10.042;2024-03-08T08:03:11;31.33;;;14.50;;
15637;SDS011;26604;53.596;10.042;2024-03-08T08:05:38;26.05;;;12.43;;
15637;SDS011;26604;53.596;10.042;2024-03-08T08:08:07;35.97;;;14.70;;
15637;SDS011;26604;53.596;10.042;2024-03-08T08:10:35;26.92;;;14.32;;
15637;SDS011;26604;53.596;10.042;2024-03-08T08:13:02;27.02;;;13.63;;
15637;SDS011;26604;53.596;10.042;2024-03-08T08:15:29;25.48;;;13.55;;
15637;SDS011;26604;53.596;10.042;2024-03-08T08:17:56;29.83;;;14.05;;
15637;SDS011;26604;53.596;10.042;2024-03-08T08:20:23;28.27;;;13.95;;
15637;SDS011;26604;53.596;10.042;2024-03-08T08:22:51;29.42;;;15.13;;
15637;SDS011;26604;53.596;10.042;2024-03-08T08:25:20;31.60;;;14.55;;
15637;SDS011;26604;53.596;10.042;2024-03-08T08:27:49;30.92;;;14.45;;
15637;SDS011;26604;53.596;10.042;2024-03-08T08:30:16;26.83;;;14.15;;
15637;SDS011;26604;53.596;10.042;2024-03-08T08:32:43;30.10;;;14.23;;
15637;SDS011;26604;53.596;10.042;2024-03-08T08:35:12;32.53;;;14.00;;
15637;SDS011;26604;53.596;10.042;2024-03-08T08:37:39;32.03;;;14.20;;
15637;SDS011;26604;53.596;10.042;2024-03-08T08:40:06;25.88;;;13.95;;
15637;SDS011;26604;53.596;10.042;2024-03-08T08:42:37;28.95;;;13.75;;
15637;SDS011;26604;53.596;10.042;2024-03-08T08:45:04;30.17;;;13.85;;
15637;SDS011;26604;53.596;10.042;2024-03-08T08:47:33;29.63;;;13.73;;
15637;SDS011;26604;53.596;10.042;2024-03-08T08:50:00;26.88;;;13.48;;
15637;SDS011;26604;53.596;10.042;2024-03-08T08:52:27;29.98;;;14.50;;
15637;SDS011;26604;53.596;10.042;2024-03-08T08:54:55;26.58;;;13.75;;
15637;SDS011;26604;53.596;10.042;2024-03-08T08:57:22;26.35;;;13.52;;
15637;SDS011;26604;53.596;10.042;2024-03-08T08:59:50;30.05;;;13.93;;
15637;SDS011;26604;53.596;10.042;2024-03-08T09:02:17;27.27;;;14.38;;
15637;SDS011;26604;53.596;10.042;2024-03-08T09:04:46;29.98;;;14.02;;
15637;SDS011;26604;53.596;10.042;2024-03-08T09:07:13;29.92;;;14.32;;
15637;SDS011;26604;53.596;10.042;2024-03-08T09:09:41;28.58;;;14.48;;
15637;SDS011;26604;53.596;10.042;2024-03-08T09:12:08;25.30;;;13.43;;
15637;SDS011;26604;53.596;10.042;2024-03-08T09:14:38;28.25;;;14.07;;
15637;SDS011;26604;53.596;10.042;2024-03-08T09:17:06;25.30;;;13.27;;
15637;SDS011;26604;53.596;10.042;2024-03-08T09:19:34;31.33;;;15.15;;
15637;SDS011;26604;53.596;10.042;2024-03-08T09:22:01;29.35;;;13.63;;
15637;SDS011;26604;53.596;10.042;2024-03-08T09:24:29;26.92;;;13.23;;
15637;SDS011;26604;53.596;10.042;2024-03-08T09:26:56;25.85;;;13.27;;
15637;SDS011;26604;53.596;10.042;2024-03-08T09:29:23;27.27;;;14.07;;
15637;SDS011;26604;53.596;10.042;2024-03-08T09:31:50;27.90;;;14.23;;
15637;SDS011;26604;53.596;10.042;2024-03-08T09:34:18;29.42;;;13.43;;
15637;SDS011;26604;53.596;10.042;2024-03-08T09:36:45;27.40;;;13.85;;
15637;SDS011;26604;53.596;10.042;2024-03-08T09:39:12;29.98;;;13.00;;
15637;SDS011;26604;53.596;10.042;2024-03-08T09:41:41;22.52;;;12.90;;
15637;SDS011;26604;53.596;10.042;2024-03-08T09:44:09;30.83;;;13.55;;
15637;SDS011;26604;53.596;10.042;2024-03-08T09:46:36;27.88;;;13.68;;
15637;SDS011;26604;53.596;10.042;2024-03-08T09:49:03;24.40;;;12.57;;
15637;SDS011;26604;53.596;10.042;2024-03-08T09:51:33;25.58;;;13.25;;
15637;SDS011;26604;53.596;10.042;2024-03-08T09:54:01;24.92;;;12.95;;
15637;SDS011;26604;53.596;10.042;2024-03-08T09:56:29;25.85;;;13.48;;
15637;SDS011;26604;53.596;10.042;2024-03-08T09:58:59;26.08;;;12.80;;
15637;SDS011;26604;53.596;10.042;2024-03-08T10:01:57;30.42;;;13.50;;
15637;SDS011;26604;53.596;10.042;2024-03-08T10:04:24;28.25;;;13.10;;
15637;SDS011;26604;53.596;10.042;2024-03-08T10:06:54;26.80;;;13.52;;
15637;SDS011;26604;53.596;10.042;2024-03-08T10:09:22;28.55;;;13.18;;
15637;SDS011;26604;53.596;10.042;2024-03-08T10:11:50;29.38;;;14.15;;
15637;SDS011;26604;53.596;10.042;2024-03-08T10:14:19;26.40;;;12.88;;
15637;SDS011;26604;53.596;10.042;2024-03-08T10:16:46;23.90;;;12.75;;
15637;SDS011;26604;53.596;10.042;2024-03-08T10:19:14;27.13;;;13.02;;
15637;SDS011;26604;53.596;10.042;2024-03-08T10:21:47;24.00;;;12.65;;
15637;SDS011;26604;53.596;10.042;2024-03-08T10:24:16;26.70;;;14.50;;
15637;SDS011;26604;53.596;10.042;2024-03-08T10:26:43;26.55;;;13.32;;
15637;SDS011;26604;53.596;10.042;2024-03-08T10:29:11;27.95;;;13.82;;
15637;SDS011;26604;53.596;10.042;2024-03-08T10:31:42;27.90;;;14.75;;
15637;SDS011;26604;53.596;10.042;2024-03-08T10:34:09;24.15;;;13.60;;
15637;SDS011;26604;53.596;10.042;2024-03-08T10:36:36;26.50;;;12.63;;
15637;SDS011;26604;53.596;10.042;2024-03-08T10:39:05;24.77;;;13.10;;
15637;SDS011;26604;53.596;10.042;2024-03-08T10:41:38;25.95;;;12.70;;
15637;SDS011;26604;53.596;10.042;2024-03-08T10:44:10;23.15;;;11.73;;
15637;SDS011;26604;53.596;10.042;2024-03-08T10:46:52;29.80;;;11.98;;
15637;SDS011;26604;53.596;10.042;2024-03-08T10:49:30;23.10;;;11.68;;
15637;SDS011;26604;53.596;10.042;2024-03-08T10:51:59;21.83;;;11.70;;
15637;SDS011;26604;53.596;10.042;2024-03-08T10:54:29;23.65;;;12.32;;
15637;SDS011;26604;53.596;10.042;2024-03-08T10:56:59;22.55;;;11.52;;
15637;SDS011;26604;53.596;10.042;2024-03-08T10:59:27;23.20;;;11.75;;
15637;SDS011;26604;53.596;10.042;2024-03-08T11:01:56;21.73;;;11.60;;
15637;SDS011;26604;53.596;10.042;2024-03-08T11:04:23;22.77;;;10.80;;
15637;SDS011;26604;53.596;10.042;2024-03-08T11:06:51;22.48;;;11.15;;
15637;SDS011;26604;53.596;10.042;2024-03-08T11:09:28;22.30;;;12.05;;
15637;SDS011;26604;53.596;10.042;2024-03-08T11:14:51;21.08;;;10.90;;
15637;SDS011;26604;53.596;10.042;2024-03-08T11:17:25;25.15;;;11.40;;
15637;SDS011;26604;53.596;10.042;2024-03-08T11:20:11;22.27;;;11.57;;
15637;SDS011;26604;53.596;10.042;2024-03-08T11:22:41;22.08;;;11.98;;
15637;SDS011;26604;53.596;10.042;2024-03-08T11:28:09;22.63;;;10.82;;
15637;SDS011;26604;53.596;10.042;2024-03-08T11:30:42;20.13;;;10.20;;
15637;SDS011;26604;53.596;10.042;2024-03-08T11:33:11;19.30;;;10.02;;
15637;SDS011;26604;53.596;10.042;2024-03-08T11:35:38;19.90;;;11.13;;
15637;SDS011;26604;53.596;10.042;2024-03-08T11:38:07;20.25;;;11.23;;
15637;SDS011;26604;53.596;10.042;2024-03-08T11:40:34;20.08;;;10.70;;
15637;SDS011;26604;53.596;10.042;2024-03-08T11:43:02;19.65;;;10.90;;
15637;SDS011;26604;53.596;10.042;2024-03-08T11:45:33;23.02;;;10.95;;
15637;SDS011;26604;53.596;10.042;2024-03-08T11:48:01;21.45;;;11.07;;
15637;SDS011;26604;53.596;10.042;2024-03-08T11:50:29;21.50;;;11.00;;
15637;SDS011;26604;53.596;10.042;2024-03-08T11:53:00;21.40;;;10.90;;
15637;SDS011;26604;53.596;10.042;2024-03-08T11:55:28;18.88;;;10.60;;
15637;SDS011;26604;53.596;10.042;2024-03-08T11:57:59;21.42;;;10.93;;
15637;SDS011;26604;53.596;10.042;2024-03-08T12:00:27;19.42;;;10.25;;
15637;SDS011;26604;53.596;10.042;2024-03-08T12:03:04;20.35;;;10.07;;
15637;SDS011;26604;53.596;10.042;2024-03-08T12:05:32;18.23;;;9.70;;
15637;SDS011;26604;53.596;10.042;2024-03-08T12:07:59;18.30;;;10.25;;
15637;SDS011;26604;53.596;10.042;2024-03-08T12:10:26;21.50;;;10.25;;
15637;SDS011;26604;53.596;10.042;2024-03-08T12:12:54;19.13;;;9.70;;
15637;SDS011;26604;53.596;10.042;2024-03-08T12:15:24;17.75;;;10.60;;
15637;SDS011;26604;53.596;10.042;2024-03-08T12:17:53;15.95;;;10.13;;
15637;SDS011;26604;53.596;10.042;2024-03-08T12:20:23;22.00;;;10.55;;
15637;SDS011;26604;53.596;10.042;2024-03-08T12:22:51;18.75;;;9.82;;
15637;SDS011;26604;53.596;10.042;2024-03-08T12:25:19;21.15;;;10.68;;
15637;SDS011;26604;53.596;10.042;2024-03-08T12:27:46;19.95;;;9.82;;
15637;SDS011;26604;53.596;10.042;2024-03-08T12:30:17;19.65;;;10.15;;
15637;SDS011;26604;53.596;10.042;2024-03-08T12:32:47;19.38;;;10.18;;
15637;SDS011;26604;53.596;10.042;2024-03-08T12:35:19;21.52;;;11.05;;
15637;SDS011;26604;53.596;10.042;2024-03-08T12:37:48;17.13;;;9.80;;
15637;SDS011;26604;53.596;10.042;2024-03-08T12:40:17;20.30;;;10.98;;
15637;SDS011;26604;53.596;10.042;2024-03-08T12:42:46;18.25;;;9.63;;
15637;SDS011;26604;53.596;10.042;2024-03-08T12:45:13;21.80;;;10.98;;
15637;SDS011;26604;53.596;10.042;2024-03-08T12:47:40;18.95;;;11.13;;
15637;SDS011;26604;53.596;10.042;2024-03-08T12:50:08;18.45;;;10.32;;
15637;SDS011;26604;53.596;10.042;2024-03-08T12:52:37;22.80;;;9.82;;
15637;SDS011;26604;53.596;10.042;2024-03-08T12:55:04;19.45;;;10.70;;
15637;SDS011;26604;53.596;10.042;2024-03-08T12:57:33;17.20;;;9.70;;
15637;SDS011;26604;53.596;10.042;2024-03-08T13:00:01;18.10;;;9.18;;
15637;SDS011;26604;53.596;10.042;2024-03-08T13:02:29;17.00;;;9.00;;
15637;SDS011;26604;53.596;10.042;2024-03-08T13:04:57;18.17;;;9.90;;
15637;SDS011;26604;53.596;10.042;2024-03-08T13:07:24;16.33;;;10.40;;
15637;SDS011;26604;53.596;10.042;2024-03-08T13:09:53;19.50;;;9.52;;
15637;SDS011;26604;53.596;10.042;2024-03-08T13:12:22;21.38;;;10.20;;
15637;SDS011;26604;53.596;10.042;2024-03-08T13:14:49;24.48;;;9.98;;
15637;SDS011;26604;53.596;10.042;2024-03-08T13:17:16;20.58;;;9.98;;
15637;SDS011;26604;53.596;10.042;2024-03-08T13:19:43;20.05;;;10.27;;
15637;SDS011;26604;53.596;10.042;2024-03-08T13:22:10;18.92;;;10.60;;
15637;SDS011;26604;53.596;10.042;2024-03-08T13:24:38;17.58;;;9.88;;
15637;SDS011;26604;53.596;10.042;2024-03-08T13:27:07;20.40;;;10.05;;
15637;SDS011;26604;53.596;10.042;2024-03-08T13:29:44;20.10;;;9.55;;
15637;SDS011;26604;53.596;10.042;2024-03-08T13:32:13;20.52;;;9.48;;
15637;SDS011;26604;53.596;10.042;2024-03-08T13:34:40;21.67;;;10.07;;
15637;SDS011;26604;53.596;10.042;2024-03-08T13:37:07;20.17;;;9.85;;
15637;SDS011;26604;53.596;10.042;2024-03-08T13:39:35;16.73;;;9.73;;
15637;SDS011;26604;53.596;10.042;2024-03-08T13:42:09;18.75;;;9.43;;
15637;SDS011;26604;53.596;10.042;2024-03-08T13:44:38;15.57;;;8.27;;
15637;SDS011;26604;53.596;10.042;2024-03-08T13:47:06;16.88;;;8.48;;
15637;SDS011;26604;53.596;10.042;2024-03-08T13:49:33;17.33;;;9.68;;
15637;SDS011;26604;53.596;10.042;2024-03-08T13:52:00;18.52;;;9.27;;
15637;SDS011;26604;53.596;10.042;2024-03-08T13:54:26;18.10;;;8.82;;
15637;SDS011;26604;53.596;10.042;2024-03-08T13:56:56;18.30;;;9.63;;
15637;SDS011;26604;53.596;10.042;2024-03-08T13:59:24;18.02;;;9.57;;
15637;SDS011;26604;53.596;10.042;2024-03-08T14:01:54;16.90;;;9.60;;
15637;SDS011;26604;53.596;10.042;2024-03-08T14:04:22;19.15;;;10.73;;
15637;SDS011;26604;53.596;10.042;2024-03-08T14:06:49;15.98;;;8.25;;
15637;SDS011;26604;53.596;10.042;2024-03-08T14:09:21;15.30;;;8.82;;
15637;SDS011;26604;53.596;10.042;2024-03-08T14:11:49;18.10;;;9.07;;
15637;SDS011;26604;53.596;10.042;2024-03-08T14:14:18;16.45;;;8.80;;
15637;SDS011;26604;53.596;10.042;2024-03-08T14:16:47;13.30;;;8.25;;
15637;SDS011;26604;53.596;10.042;2024-03-08T14:19:14;17.63;;;8.43;;
15637;SDS011;26604;53.596;10.042;2024-03-08T14:21:40;18.95;;;9.48;;
15637;SDS011;26604;53.596;10.042;2024-03-08T14:24:08;19.25;;;9.30;;